createdAt,value
2022-08-05T19:06:11.284Z,97385.75
2022-08-05T19:08:45.246Z,97394.72
2022-08-05T19:12:00.182Z,97406.88
2022-08-05T19:15:03.034Z,97415.53
2022-08-05T19:18:10.247Z,97417.41
2022-08-05T19:21:12.205Z,97422.59
2022-08-05T19:24:13.765Z,97429.09
2022-08-05T19:27:15.296Z,97438.81
2022-08-05T19:30:17.164Z,97446.69
2022-08-05T19:33:33.904Z,97451.81
2022-08-05T19:36:38.437Z,97457.50
2022-08-05T19:39:45.522Z,97458.56
2022-08-05T19:43:05.026Z,97457.19
2022-08-05T19:46:16.747Z,97463.41
2022-08-05T19:49:29.064Z,97482.09
2022-08-05T19:52:32.387Z,97482.66
2022-08-05T19:56:15.094Z,97470.22
2022-08-05T19:58:55.611Z,97476.72
2022-08-05T20:02:01.344Z,97479.72
2022-08-05T20:05:05.096Z,97487.59
2022-08-05T20:08:11.299Z,97490.84
2022-08-05T20:11:12.926Z,97504.63
2022-08-05T20:14:23.515Z,97511.38
2022-08-05T20:17:29.265Z,97499.72
2022-08-05T20:20:38.106Z,97505.16
2022-08-05T20:23:50.930Z,97504.59
2022-08-05T20:26:53.215Z,97502.69
2022-08-05T20:29:58.569Z,97505.38
2022-08-05T20:33:00.525Z,97509.72
2022-08-05T20:36:02.141Z,97514.59
2022-08-05T20:39:03.926Z,97520.50
2022-08-05T20:42:11.560Z,97517.44
2022-08-05T20:45:13.408Z,97520.31
2022-08-05T20:48:16.574Z,97530.41
2022-08-05T20:51:18.274Z,97532.06
2022-08-05T20:54:19.794Z,97542.56
2022-08-05T20:57:43.586Z,97529.88
2022-08-05T21:00:54.291Z,97532.31
2022-08-05T21:03:57.983Z,97536.69
2022-08-05T21:07:02.694Z,97533.16
2022-08-05T21:10:05.810Z,97531.84
2022-08-05T21:13:11.274Z,97532.09
2022-08-05T21:16:16.361Z,97531.50
2022-08-05T21:19:17.852Z,97537.16
2022-08-05T21:22:23.929Z,97549.00
2022-08-05T21:25:25.576Z,97547.06
2022-08-05T21:28:35.636Z,97545.09
2022-08-05T21:31:41.361Z,97554.19
2022-08-05T21:34:43.269Z,97560.34
2022-08-05T21:37:53.302Z,97557.25
2022-08-05T21:40:58.056Z,97558.13
2022-08-05T21:44:03.665Z,97557.03
2022-08-05T21:47:06.322Z,97557.28
2022-08-05T21:50:27.966Z,97560.78
2022-08-05T21:53:29.581Z,97571.28
2022-08-05T21:56:31.085Z,97569.28
2022-08-05T21:59:48.130Z,97565.75
2022-08-05T22:02:54.810Z,97578.28
2022-08-05T22:05:56.627Z,97581.38
2022-08-05T22:08:58.609Z,97582.56
2022-08-05T22:12:02.311Z,97587.34
2022-08-05T22:15:16.392Z,97583.09
2022-08-05T22:18:19.559Z,97587.00
2022-08-05T22:21:21.212Z,97588.19
2022-08-05T22:24:52.041Z,97593.03
2022-08-05T22:28:10.515Z,97592.16
2022-08-05T22:31:13.376Z,97598.72
2022-08-05T22:34:25.425Z,97604.66
2022-08-05T22:37:58.111Z,97612.75
2022-08-05T22:40:55.201Z,97614.56
2022-08-05T22:43:59.192Z,97622.72
2022-08-05T22:47:00.685Z,97635.38
2022-08-05T22:50:19.305Z,97624.50
2022-08-05T22:53:24.499Z,97632.34
2022-08-05T22:56:40.021Z,97635.78
2022-08-05T22:59:45.781Z,97625.97
2022-08-05T23:02:52.090Z,97625.56
2022-08-05T23:05:55.736Z,97628.47
2022-08-05T23:09:27.278Z,97625.78
2022-08-05T23:12:20.335Z,97624.16
2022-08-05T23:15:29.854Z,97629.44
2022-08-05T23:18:36.605Z,97628.75
2022-08-05T23:21:42.741Z,97630.88
2022-08-05T23:24:51.225Z,97619.06
2022-08-05T23:28:00.197Z,97628.19
2022-08-05T23:31:15.788Z,97627.81
2022-08-05T23:34:24.446Z,97632.91
2022-08-05T23:37:26.827Z,97642.47
2022-08-05T23:40:37.972Z,97630.34
2022-08-05T23:44:05.411Z,97627.31
2022-08-05T23:47:02.341Z,97628.75
2022-08-05T23:50:17.114Z,97628.63
2022-08-05T23:53:22.911Z,97635.06
2022-08-05T23:56:27.283Z,97634.47
